Time;durP1;ratioP1;P1;durP2;ratioP2;P2;SDS_P1;SDS_P2;PMS_P1;PMS_P2;Temp;Humidity;BMP_temperature;BMP_pressure;BME280_temperature;BME280_humidity;BME280_pressure;Samples;Min_cycle;Max_cycle;Signal;HPM_P1;HPM_P2
2022/11/30 00:03:22;;;;;;;72.62;34.05;;;7.20;99.90;;;;;;7370151;32;20107;-59
2022/11/30 00:07:24;;;;;;;71.50;31.48;;;7.20;99.90;;;;;;7370710;32;20115;-59
2022/11/30 00:11:28;;;;;;;78.55;32.75;;;7.10;99.90;;;;;;7372206;32;20240;-59
2022/11/30 00:15:30;;;;;;;73.22;32.03;;;7.20;99.90;;;;;;7383030;32;20137;-59
2022/11/30 00:19:31;;;;;;;80.00;32.40;;;7.20;99.90;;;;;;7375760;32;20107;-60
2022/11/30 00:23:39;;;;;;;86.37;32.67;;;7.10;99.90;;;;;;7376292;32;20183;-59
2022/11/30 00:27:41;;;;;;;67.57;29.25;;;7.10;99.90;;;;;;7364704;32;20474;-61
2022/11/30 00:31:42;;;;;;;73.10;31.77;;;7.10;99.90;;;;;;7376303;32;20220;-59
2022/11/30 00:35:58;;;;;;;72.32;31.10;;;7.10;99.90;;;;;;7373829;32;20671;-60
2022/11/30 00:39:59;;;;;;;78.47;32.30;;;7.10;99.90;;;;;;7375577;32;20120;-60
2022/11/30 00:44:01;;;;;;;78.18;33.55;;;7.20;99.90;;;;;;7366529;32;20107;-59
2022/11/30 00:48:03;;;;;;;78.25;31.55;;;7.10;99.90;;;;;;7369761;32;20418;-60
2022/11/30 00:52:05;;;;;;;64.30;29.05;;;7.10;99.90;;;;;;7376402;32;20176;-59
2022/11/30 00:56:08;;;;;;;71.60;29.37;;;7.10;99.90;;;;;;7370931;32;20197;-60
2022/11/30 01:00:10;;;;;;;65.30;29.12;;;7.10;99.90;;;;;;7370577;32;20112;-59
2022/11/30 01:04:11;;;;;;;62.05;29.00;;;7.10;99.90;;;;;;7377578;32;20130;-60
2022/11/30 01:08:13;;;;;;;61.37;27.87;;;7.10;99.90;;;;;;7371309;32;20107;-62
2022/11/30 01:12:15;;;;;;;55.53;25.42;;;7.10;99.90;;;;;;7364164;32;20137;-59
2022/11/30 01:16:19;;;;;;;63.87;28.10;;;7.10;99.90;;;;;;7370332;32;20629;-59
2022/11/30 01:20:21;;;;;;;60.40;26.62;;;7.00;99.90;;;;;;7367617;32;20111;-59
2022/11/30 01:24:23;;;;;;;55.70;28.27;;;7.10;99.90;;;;;;7379854;32;20119;-59
2022/11/30 01:28:24;;;;;;;60.08;28.45;;;7.10;99.90;;;;;;7377185;32;20111;-60
2022/11/30 01:32:26;;;;;;;61.72;28.25;;;7.10;99.90;;;;;;7372718;32;20193;-60
2022/11/30 01:36:28;;;;;;;69.87;30.95;;;7.10;99.90;;;;;;7384871;32;20254;-61
2022/11/30 01:40:29;;;;;;;64.12;29.60;;;7.10;99.90;;;;;;7374121;32;20099;-60
2022/11/30 01:44:31;;;;;;;73.87;31.10;;;7.00;99.90;;;;;;7383328;32;20482;-59
2022/11/30 01:48:33;;;;;;;73.90;30.60;;;7.00;99.90;;;;;;7373036;32;20138;-60
2022/11/30 01:52:38;;;;;;;74.37;32.05;;;7.00;99.90;;;;;;7369029;32;20130;-60
2022/11/30 01:56:46;;;;;;;110.35;32.83;;;7.10;99.90;;;;;;7369295;32;20102;-59
2022/11/30 02:00:48;;;;;;;79.37;32.10;;;7.00;99.90;;;;;;7372631;32;20141;-59
2022/11/30 02:04:50;;;;;;;82.90;33.45;;;7.00;99.90;;;;;;7372441;32;20174;-59
2022/11/30 02:08:52;;;;;;;81.35;32.92;;;7.00;99.90;;;;;;7379889;32;20232;-60
2022/11/30 02:13:12;;;;;;;87.37;31.67;;;7.10;99.90;;;;;;7378251;32;20209;-60
2022/11/30 02:17:57;;;;;;;80.40;32.75;;;7.10;99.90;;;;;;7378055;32;20107;-59
2022/11/30 02:22:03;;;;;;;91.47;34.92;;;7.10;99.90;;;;;;7339027;32;20103;-59
2022/11/30 02:26:35;;;;;;;91.72;34.70;;;7.00;99.90;;;;;;7369298;32;20137;-61
2022/11/30 02:30:42;;;;;;;95.30;36.40;;;7.10;99.90;;;;;;7369096;32;20331;-60
2022/11/30 02:34:47;;;;;;;90.78;35.85;;;7.10;99.90;;;;;;7377857;32;20299;-60
2022/11/30 02:38:49;;;;;;;98.40;37.28;;;7.10;99.90;;;;;;7372259;32;20289;-59
2022/11/30 02:42:53;;;;;;;99.65;38.63;;;7.10;99.90;;;;;;7376289;32;20142;-60
2022/11/30 02:47:19;;;;;;;92.72;36.55;;;7.10;99.90;;;;;;7377684;32;20479;-60
2022/11/30 02:51:25;;;;;;;101.15;38.75;;;7.10;99.90;;;;;;7378046;32;20458;-60
2022/11/30 02:55:28;;;;;;;112.45;37.75;;;7.10;99.90;;;;;;7373338;32;20220;-60
2022/11/30 02:59:29;;;;;;;98.45;37.80;;;7.10;99.90;;;;;;7373591;32;20107;-60
2022/11/30 03:03:31;;;;;;;96.72;35.40;;;7.00;99.90;;;;;;7384138;32;20514;-60
2022/11/30 03:07:33;;;;;;;97.88;37.67;;;7.10;99.90;;;;;;7376812;32;20131;-59
2022/11/30 03:11:35;;;;;;;90.90;36.88;;;7.10;99.90;;;;;;7371178;32;20095;-59
2022/11/30 03:15:37;;;;;;;84.15;35.22;;;7.10;99.90;;;;;;7379522;32;20242;-59
2022/11/30 03:19:39;;;;;;;81.00;35.25;;;7.10;99.90;;;;;;7376968;32;20183;-58
2022/11/30 03:23:40;;;;;;;76.28;33.55;;;7.00;99.90;;;;;;7380250;32;20107;-59
2022/11/30 03:27:42;;;;;;;73.25;32.58;;;7.10;99.90;;;;;;7374461;32;20138;-59
2022/11/30 03:31:44;;;;;;;73.90;34.33;;;7.00;99.90;;;;;;7376078;32;20187;-59
2022/11/30 03:35:46;;;;;;;77.95;34.90;;;7.10;99.90;;;;;;7378022;32;20458;-59
2022/11/30 03:39:48;;;;;;;87.10;35.47;;;7.00;99.90;;;;;;7380843;32;20106;-59
2022/11/30 03:43:57;;;;;;;71.80;37.13;;;7.00;99.90;;;;;;7377606;32;20202;-61
2022/11/30 03:47:58;;;;;;;89.53;36.95;;;6.90;99.90;;;;;;7378135;32;20149;-60
2022/11/30 03:52:00;;;;;;;76.72;37.10;;;6.80;99.90;;;;;;7381323;32;20103;-60
2022/11/30 03:56:05;;;;;;;93.45;38.63;;;6.70;99.90;;;;;;7371518;32;20114;-59
2022/11/30 04:00:07;;;;;;;79.18;36.38;;;6.70;99.90;;;;;;7370310;32;20511;-59
2022/11/30 04:04:10;;;;;;;70.40;34.97;;;6.70;99.90;;;;;;7374784;32;20138;-59
2022/11/30 04:08:12;;;;;;;72.90;34.20;;;6.60;99.90;;;;;;7366104;32;20137;-59
2022/11/30 04:12:14;;;;;;;71.72;34.60;;;6.60;99.90;;;;;;7372754;32;20133;-59
2022/11/30 04:16:16;;;;;;;73.37;35.15;;;6.60;99.90;;;;;;7368549;32;20103;-59
2022/11/30 04:20:17;;;;;;;64.93;33.78;;;6.60;99.90;;;;;;7370664;32;20199;-59
2022/11/30 04:24:19;;;;;;;66.62;32.47;;;6.60;99.90;;;;;;7372188;32;20113;-59
2022/11/30 04:28:21;;;;;;;63.85;30.75;;;6.50;99.90;;;;;;7372385;32;20110;-60
2022/11/30 04:32:23;;;;;;;58.42;29.37;;;6.60;99.90;;;;;;7367657;32;20104;-59
2022/11/30 04:36:24;;;;;;;58.72;30.00;;;6.60;99.90;;;;;;7374393;32;20230;-59
2022/11/30 04:40:26;;;;;;;55.97;30.00;;;6.60;99.90;;;;;;7376780;32;20098;-60
2022/11/30 04:44:28;;;;;;;58.15;31.42;;;6.50;99.90;;;;;;7377677;32;20597;-59
2022/11/30 04:48:29;;;;;;;64.00;30.50;;;6.50;99.90;;;;;;7375101;32;20130;-60
2022/11/30 04:52:31;;;;;;;68.32;31.23;;;6.50;99.90;;;;;;7379847;32;20135;-59
2022/11/30 04:56:33;;;;;;;61.42;32.10;;;6.60;99.90;;;;;;7384220;32;20494;-59
2022/11/30 05:00:35;;;;;;;57.85;30.88;;;6.50;99.90;;;;;;7370456;32;20107;-59
2022/11/30 05:04:37;;;;;;;61.30;32.28;;;6.50;99.90;;;;;;7378805;32;20238;-59
2022/11/30 05:08:39;;;;;;;60.17;32.30;;;6.50;99.90;;;;;;7375653;32;20119;-59
2022/11/30 05:12:40;;;;;;;58.08;31.70;;;6.50;99.90;;;;;;7378015;32;20137;-59
2022/11/30 05:16:42;;;;;;;57.28;31.12;;;6.40;99.90;;;;;;7378357;32;20744;-59
2022/11/30 05:20:48;;;;;;;61.60;31.70;;;6.40;99.90;;;;;;7379254;32;20480;-59
2022/11/30 05:24:50;;;;;;;59.93;29.80;;;6.40;99.90;;;;;;7378571;32;20129;-60
2022/11/30 05:28:52;;;;;;;56.67;30.15;;;6.30;99.90;;;;;;7379337;32;20637;-59
2022/11/30 05:32:53;;;;;;;54.00;29.17;;;6.30;99.90;;;;;;7378393;32;20103;-59
2022/11/30 05:36:55;;;;;;;53.78;29.20;;;6.30;99.90;;;;;;7373259;32;20099;-59
2022/11/30 05:41:00;;;;;;;49.17;27.98;;;6.40;99.90;;;;;;7371906;32;20503;-59
2022/11/30 05:45:02;;;;;;;51.28;28.60;;;6.30;99.90;;;;;;7371653;32;20131;-58
2022/11/30 05:49:04;;;;;;;44.17;26.67;;;6.20;99.90;;;;;;7378408;32;20135;-59
2022/11/30 05:53:06;;;;;;;44.72;25.20;;;6.10;99.90;;;;;;7376079;32;20126;-58
2022/11/30 05:57:07;;;;;;;48.33;27.35;;;6.00;99.90;;;;;;7376095;32;20262;-59
2022/11/30 06:01:26;;;;;;;48.97;27.73;;;6.00;99.90;;;;;;7376606;32;20267;-58
2022/11/30 06:05:28;;;;;;;49.35;27.73;;;6.00;99.90;;;;;;7374229;32;20147;-58
2022/11/30 06:09:29;;;;;;;51.08;27.20;;;5.90;99.90;;;;;;7376109;32;20515;-59
2022/11/30 06:13:31;;;;;;;51.88;28.10;;;5.90;99.90;;;;;;7374198;32;20126;-61
2022/11/30 06:17:34;;;;;;;51.05;27.73;;;5.90;99.90;;;;;;7373820;32;20582;-61
2022/11/30 06:21:35;;;;;;;52.20;27.17;;;5.90;99.90;;;;;;7373919;32;20103;-59
2022/11/30 06:25:37;;;;;;;51.58;27.37;;;5.90;99.90;;;;;;7371996;32;20210;-59
2022/11/30 06:29:39;;;;;;;49.33;27.17;;;5.90;99.90;;;;;;7380036;32;20482;-58
2022/11/30 06:33:40;;;;;;;52.42;27.25;;;5.90;99.90;;;;;;7378511;32;20125;-58
2022/11/30 06:37:42;;;;;;;49.38;26.87;;;5.90;99.90;;;;;;7376919;32;20122;-59
2022/11/30 06:41:44;;;;;;;49.20;26.65;;;5.90;99.90;;;;;;7373347;32;20526;-59
2022/11/30 06:45:50;;;;;;;48.97;25.90;;;5.90;99.90;;;;;;7377091;32;20091;-60
2022/11/30 06:49:52;;;;;;;50.58;27.75;;;5.90;99.90;;;;;;7378593;32;20232;-58
2022/11/30 06:53:54;;;;;;;47.72;26.42;;;5.80;99.90;;;;;;7373170;32;20106;-59
2022/11/30 06:58:07;;;;;;;50.05;26.33;;;5.80;99.90;;;;;;7374457;32;20116;-59
2022/11/30 07:02:10;;;;;;;51.83;28.23;;;5.90;99.90;;;;;;7374127;32;20224;-60
2022/11/30 07:06:18;;;;;;;46.92;26.85;;;5.90;99.90;;;;;;7375077;32;20234;-59
2022/11/30 07:10:21;;;;;;;45.28;26.95;;;6.00;99.90;;;;;;7374300;32;20236;-59
2022/11/30 07:14:24;;;;;;;43.90;25.98;;;6.00;99.90;;;;;;7377272;32;20511;-60
2022/11/30 07:18:26;;;;;;;46.60;27.87;;;6.00;99.90;;;;;;7373754;32;20463;-62
2022/11/30 07:22:32;;;;;;;46.83;26.17;;;6.10;99.90;;;;;;7372276;32;20115;-61
2022/11/30 07:26:34;;;;;;;43.47;24.10;;;6.10;99.90;;;;;;7379900;32;20095;-61
2022/11/30 07:30:36;;;;;;;42.05;25.23;;;6.10;99.90;;;;;;7376219;32;20129;-61
2022/11/30 07:34:37;;;;;;;40.80;24.87;;;6.10;99.90;;;;;;7374233;32;20122;-61
2022/11/30 07:38:39;;;;;;;41.72;26.12;;;6.10;99.90;;;;;;7372200;32;20107;-62
2022/11/30 07:42:41;;;;;;;43.35;26.73;;;6.20;99.90;;;;;;7370272;32;20107;-61
2022/11/30 07:46:43;;;;;;;49.00;27.13;;;6.20;99.90;;;;;;7376352;32;20123;-61
2022/11/30 07:50:45;;;;;;;40.78;24.98;;;6.20;99.90;;;;;;7374610;32;20511;-61
2022/11/30 07:54:47;;;;;;;48.67;27.25;;;6.20;99.90;;;;;;7372399;32;20095;-61
2022/11/30 07:58:52;;;;;;;43.78;25.67;;;6.30;99.90;;;;;;7368139;32;20133;-62
2022/11/30 08:02:53;;;;;;;43.83;25.25;;;6.30;99.90;;;;;;7373010;32;20546;-57
2022/11/30 08:06:55;;;;;;;43.33;26.17;;;6.30;99.90;;;;;;7377166;32;20133;-58
2022/11/30 08:10:58;;;;;;;43.10;25.88;;;6.30;99.90;;;;;;7379003;32;20125;-61
2022/11/30 08:14:59;;;;;;;44.42;26.52;;;6.30;99.90;;;;;;7376247;32;20111;-63
2022/11/30 08:19:21;;;;;;;44.10;25.98;;;6.30;99.90;;;;;;7377496;32;20210;-60
2022/11/30 08:23:23;;;;;;;46.88;27.40;;;6.40;99.90;;;;;;7376581;32;20217;-62
2022/11/30 08:27:25;;;;;;;48.45;27.17;;;6.30;99.90;;;;;;7375279;32;20111;-61
2022/11/30 08:31:36;;;;;;;48.10;26.90;;;6.40;99.90;;;;;;7381424;32;20112;-61
2022/11/30 08:35:38;;;;;;;44.63;25.90;;;6.40;99.90;;;;;;7377345;32;20104;-62
2022/11/30 08:39:40;;;;;;;47.25;26.98;;;6.40;99.90;;;;;;7381533;32;20135;-62
2022/11/30 08:43:41;;;;;;;43.45;26.65;;;6.40;99.90;;;;;;7383447;32;20597;-60
2022/11/30 08:47:43;;;;;;;40.55;25.70;;;6.50;99.90;;;;;;7379578;32;20111;-61
2022/11/30 08:51:45;;;;;;;43.53;26.27;;;6.50;99.90;;;;;;7385575;32;20198;-61
2022/11/30 08:56:12;;;;;;;43.25;27.35;;;6.60;99.90;;;;;;7383769;32;20107;-60
2022/11/30 09:00:14;;;;;;;46.25;29.17;;;6.50;99.90;;;;;;7370690;32;20107;-61
2022/11/30 09:04:17;;;;;;;46.47;28.10;;;6.50;99.90;;;;;;7379545;32;20512;-61
2022/11/30 09:08:18;;;;;;;47.13;30.20;;;6.50;99.90;;;;;;7373548;32;20107;-61
2022/11/30 09:12:20;;;;;;;50.47;30.33;;;6.50;99.90;;;;;;7371162;32;20214;-63
2022/11/30 09:16:22;;;;;;;47.03;28.90;;;6.50;99.90;;;;;;7380775;32;20444;-61
2022/11/30 09:20:24;;;;;;;46.63;29.15;;;6.60;99.90;;;;;;7380403;32;20205;-62
2022/11/30 09:24:26;;;;;;;43.40;28.48;;;6.60;99.90;;;;;;7368884;32;20114;-60
2022/11/30 09:28:31;;;;;;;48.70;29.40;;;6.60;99.90;;;;;;7387695;32;20167;-61
2022/11/30 09:32:32;;;;;;;49.28;30.67;;;6.70;99.90;;;;;;7378208;32;20142;-61
2022/11/30 09:36:35;;;;;;;64.55;37.03;;;6.60;99.90;;;;;;7375008;32;20228;-61
2022/11/30 09:40:40;;;;;;;60.28;35.22;;;6.50;99.90;;;;;;7378416;32;20851;-65
2022/11/30 09:45:00;;;;;;;60.92;35.85;;;6.60;99.90;;;;;;7376961;32;20112;-61
2022/11/30 09:49:12;;;;;;;61.00;36.80;;;6.50;99.90;;;;;;7372899;32;20139;-61
2022/11/30 09:53:38;;;;;;;64.78;38.83;;;6.60;99.90;;;;;;7380068;32;20107;-61
2022/11/30 09:57:59;;;;;;;65.00;38.55;;;6.60;99.90;;;;;;7376422;32;20137;-61
2022/11/30 10:02:14;;;;;;;64.45;38.92;;;6.60;99.90;;;;;;7382824;32;20133;-61
2022/11/30 10:06:28;;;;;;;65.93;39.95;;;6.60;99.90;;;;;;7373570;32;20568;-60
2022/11/30 10:10:40;;;;;;;64.97;38.22;;;6.60;99.90;;;;;;7374996;32;20217;-61
2022/11/30 10:14:53;;;;;;;68.75;37.55;;;6.70;99.90;;;;;;7383325;32;20545;-61
2022/11/30 10:19:17;;;;;;;65.30;36.63;;;6.70;99.90;;;;;;7378471;32;20107;-60
2022/11/30 10:23:27;;;;;;;59.65;35.17;;;6.70;99.90;;;;;;7380235;32;20186;-61
2022/11/30 10:27:53;;;;;;;61.35;34.70;;;6.70;99.90;;;;;;7371070;32;20198;-61
2022/11/30 10:31:58;;;;;;;62.45;34.50;;;6.70;99.90;;;;;;7358755;32;20531;-61
2022/11/30 10:36:12;;;;;;;59.08;34.20;;;6.60;99.90;;;;;;7371384;32;20174;-63
2022/11/30 10:40:43;;;;;;;59.05;34.25;;;6.60;99.90;;;;;;7375599;32;20107;-61
2022/11/30 10:44:56;;;;;;;59.95;33.85;;;6.60;99.90;;;;;;7378709;32;20515;-61
2022/11/30 10:49:04;;;;;;;57.97;34.35;;;6.60;99.90;;;;;;7374242;32;20126;-61
2022/11/30 10:53:09;;;;;;;58.92;34.38;;;6.60;99.90;;;;;;7377062;32;20681;-61
2022/11/30 10:57:13;;;;;;;50.83;30.75;;;6.60;99.90;;;;;;7374996;32;20141;-61
2022/11/30 11:01:34;;;;;;;56.45;33.78;;;6.60;99.90;;;;;;7378710;32;20561;-61
2022/11/30 11:05:36;;;;;;;52.45;32.10;;;6.60;99.90;;;;;;7373136;32;20117;-61
2022/11/30 11:10:00;;;;;;;53.95;31.55;;;6.60;99.90;;;;;;7374305;32;20127;-61
2022/11/30 11:14:13;;;;;;;58.87;33.17;;;6.60;99.90;;;;;;7384888;32;20498;-61
2022/11/30 11:18:14;;;;;;;56.95;33.08;;;6.60;99.90;;;;;;7374147;32;20511;-61
2022/11/30 11:22:19;;;;;;;61.35;34.72;;;6.70;99.90;;;;;;7385448;32;20127;-60
2022/11/30 11:26:26;;;;;;;53.65;32.65;;;6.60;99.90;;;;;;7373226;32;20107;-60
2022/11/30 11:30:30;;;;;;;64.80;34.67;;;6.70;99.90;;;;;;7372346;32;20156;-61
2022/11/30 11:34:34;;;;;;;60.70;34.53;;;6.60;99.90;;;;;;7369651;32;20131;-61
2022/11/30 11:38:45;;;;;;;52.97;33.25;;;6.70;99.90;;;;;;7372854;32;20233;-61
2022/11/30 11:42:57;;;;;;;57.17;32.72;;;6.70;99.90;;;;;;7375368;32;20122;-61
2022/11/30 11:47:01;;;;;;;56.37;33.20;;;6.70;99.90;;;;;;7373140;32;20099;-64
2022/11/30 11:51:06;;;;;;;53.50;32.05;;;6.70;99.90;;;;;;7369702;32;20146;-61
2022/11/30 11:55:18;;;;;;;58.45;34.08;;;6.80;99.90;;;;;;7379736;32;20133;-61
2022/11/30 11:59:45;;;;;;;56.35;32.75;;;6.80;99.90;;;;;;7370025;32;20187;-62
2022/11/30 12:04:01;;;;;;;;;;;6.80;99.90;;;;;;7380389;32;20211;-61
2022/11/30 12:08:18;;;;;;;52.90;30.92;;;6.90;99.90;;;;;;7381467;32;20002;-61
2022/11/30 12:12:19;;;;;;;51.72;32.03;;;6.80;99.90;;;;;;7376519;32;20635;-62
2022/11/30 12:16:30;;;;;;;52.70;30.73;;;6.90;99.90;;;;;;7371204;32;20103;-61
2022/11/30 12:20:42;;;;;;;54.63;32.55;;;7.00;99.90;;;;;;7370222;32;20184;-61
2022/11/30 12:25:01;;;;;;;55.20;32.92;;;7.00;99.90;;;;;;7375177;32;20103;-61
2022/11/30 12:29:16;;;;;;;54.85;32.22;;;7.10;99.90;;;;;;7377057;32;20129;-61
2022/11/30 12:33:27;;;;;;;55.17;33.33;;;7.00;99.90;;;;;;7372957;32;20099;-61
2022/11/30 12:38:01;;;;;;;57.25;32.55;;;6.90;99.90;;;;;;7370242;32;20265;-61
2022/11/30 12:42:13;;;;;;;57.72;33.97;;;6.90;99.90;;;;;;7373020;32;20139;-60
2022/11/30 12:46:26;;;;;;;58.05;33.80;;;6.90;99.90;;;;;;7368110;32;20471;-60
2022/11/30 12:50:46;;;;;;;56.78;33.38;;;6.90;99.90;;;;;;7364735;32;20108;-60
2022/11/30 12:55:18;;;;;;;58.72;32.92;;;6.90;99.90;;;;;;7366859;32;20111;-60
2022/11/30 12:59:50;;;;;;;54.53;31.52;;;6.90;99.90;;;;;;7376548;32;20217;-60
2022/11/30 13:04:17;;;;;;;53.65;30.88;;;6.90;99.90;;;;;;7371644;32;20111;-61
2022/11/30 13:09:12;;;;;;;54.65;33.38;;;6.90;99.90;;;;;;7371172;32;20918;-61
2022/11/30 13:13:18;;;;;;;56.72;32.10;;;6.80;99.90;;;;;;7344733;32;20514;-60
2022/11/30 13:17:21;;;;;;;52.28;31.77;;;6.80;99.90;;;;;;7373625;32;20989;-60
2022/11/30 13:21:40;;;;;;;60.10;32.50;;;6.70;99.90;;;;;;7372513;32;20236;-61
2022/11/30 13:26:03;;;;;;;57.95;31.90;;;6.70;99.90;;;;;;7372170;32;20133;-60
2022/11/30 13:30:39;;;;;;;58.53;33.05;;;6.70;99.90;;;;;;7375782;32;20268;-62
2022/11/30 13:34:41;;;;;;;58.45;31.98;;;6.70;99.90;;;;;;7375864;32;20661;-61
2022/11/30 13:38:43;;;;;;;56.78;33.55;;;6.60;99.90;;;;;;7375872;32;20107;-61
2022/11/30 13:42:45;;;;;;;54.28;29.75;;;6.70;99.90;;;;;;7378555;32;20130;-61
2022/11/30 13:46:52;;;;;;;57.55;31.08;;;6.70;99.90;;;;;;7371216;32;20187;-62
2022/11/30 13:50:54;;;;;;;57.38;29.65;;;6.70;99.90;;;;;;7373513;32;20107;-62
2022/11/30 13:54:57;;;;;;;53.08;29.90;;;6.80;99.90;;;;;;7371795;32;20122;-63
2022/11/30 13:59:30;;;;;;;59.35;30.90;;;6.80;99.90;;;;;;7379511;32;20182;-63
2022/11/30 14:03:32;;;;;;;54.13;29.67;;;6.80;99.90;;;;;;7378410;32;20649;-63
2022/11/30 14:07:36;;;;;;;56.40;31.15;;;6.80;99.90;;;;;;7374397;32;20293;-63
2022/11/30 14:11:40;;;;;;;56.63;31.10;;;6.70;99.90;;;;;;7381528;32;20514;-63
2022/11/30 14:15:42;;;;;;;59.50;31.60;;;6.70;99.90;;;;;;7375706;32;20123;-64
2022/11/30 14:19:50;;;;;;;65.05;33.08;;;6.70;99.90;;;;;;7374986;32;20129;-62
2022/11/30 14:23:57;;;;;;;55.58;30.73;;;6.70;99.90;;;;;;7374702;32;20107;-63
2022/11/30 14:28:01;;;;;;;57.40;30.45;;;6.70;99.90;;;;;;7373718;32;20106;-63
2022/11/30 14:32:28;;;;;;;56.17;30.45;;;6.70;99.90;;;;;;7382529;32;20127;-63
2022/11/30 14:36:37;;;;;;;71.05;42.35;;;6.70;99.90;;;;;;7378790;32;20205;-64
2022/11/30 14:40:49;;;;;;;52.85;29.17;;;6.70;99.90;;;;;;7375830;32;20133;-62
2022/11/30 14:44:52;;;;;;;55.65;29.35;;;6.80;99.90;;;;;;7372321;32;20119;-64
2022/11/30 14:49:11;;;;;;;51.80;28.95;;;6.70;99.90;;;;;;7370854;32;20110;-62
2022/11/30 14:53:57;;;;;;;49.47;28.92;;;6.70;99.90;;;;;;7374315;32;20478;-63
2022/11/30 14:58:24;;;;;;;48.83;28.40;;;6.80;99.90;;;;;;7372048;32;20195;-62
2022/11/30 15:02:36;;;;;;;50.20;30.23;;;6.70;99.90;;;;;;7376406;32;20768;-62
2022/11/30 15:06:39;;;;;;;47.15;28.05;;;6.60;99.90;;;;;;7368935;32;20640;-61
2022/11/30 15:10:41;;;;;;;41.17;27.37;;;6.60;99.90;;;;;;7372753;32;20199;-63
2022/11/30 15:15:03;;;;;;;42.72;28.60;;;6.60;99.90;;;;;;7373887;32;20221;-62
2022/11/30 15:19:24;;;;;;;44.92;27.98;;;6.50;99.90;;;;;;7379766;32;20236;-61
2022/11/30 15:23:26;;;;;;;40.03;26.92;;;6.50;99.90;;;;;;7380904;32;20095;-61
2022/11/30 15:27:28;;;;;;;40.45;26.75;;;6.50;99.90;;;;;;7379197;32;20148;-61
2022/11/30 15:31:37;;;;;;;41.88;24.87;;;6.40;99.90;;;;;;7380293;32;20667;-63
2022/11/30 15:35:45;;;;;;;34.72;24.75;;;6.50;99.90;;;;;;7376491;32;20122;-61
2022/11/30 15:40:09;;;;;;;38.97;26.02;;;6.50;99.90;;;;;;7382263;32;20121;-61
2022/11/30 15:44:23;;;;;;;40.22;26.62;;;6.40;99.90;;;;;;7378603;32;20134;-61
2022/11/30 15:48:28;;;;;;;40.97;26.95;;;6.50;99.90;;;;;;7377488;32;20129;-60
2022/11/30 15:52:32;;;;;;;41.17;27.62;;;6.50;99.90;;;;;;7372521;32;20194;-60
2022/11/30 15:56:35;;;;;;;38.88;25.83;;;6.40;99.90;;;;;;7373608;32;20135;-61
2022/11/30 16:00:36;;;;;;;40.92;27.20;;;6.40;99.90;;;;;;7369026;32;20206;-63
2022/11/30 16:04:56;;;;;;;46.63;31.30;;;6.40;99.90;;;;;;7377532;32;20145;-62
2022/11/30 16:09:16;;;;;;;48.92;33.65;;;6.40;99.90;;;;;;7374602;32;20148;-62
2022/11/30 16:13:20;;;;;;;60.40;43.15;;;6.40;99.90;;;;;;7382562;32;20149;-62
2022/11/30 16:17:22;;;;;;;34.08;24.90;;;6.50;99.90;;;;;;7371133;32;20139;-63
2022/11/30 16:21:24;;;;;;;39.22;27.37;;;6.50;99.90;;;;;;7368023;32;20099;-61
2022/11/30 16:25:25;;;;;;;39.60;25.10;;;6.40;99.90;;;;;;7376029;32;20110;-62
2022/11/30 16:29:27;;;;;;;52.95;33.80;;;6.40;99.90;;;;;;7377066;32;20537;-61
2022/11/30 16:33:29;;;;;;;44.72;29.20;;;6.40;99.90;;;;;;7368854;32;20107;-61
2022/11/30 16:37:31;;;;;;;63.63;38.28;;;6.40;99.90;;;;;;7375176;32;20627;-63
2022/11/30 16:41:34;;;;;;;45.88;27.37;;;6.40;99.90;;;;;;7370947;32;20150;-62
2022/11/30 16:45:36;;;;;;;57.62;34.38;;;6.40;99.90;;;;;;7365758;32;20099;-62
2022/11/30 16:49:38;;;;;;;53.78;34.95;;;6.40;99.90;;;;;;7372500;32;20103;-61
2022/11/30 16:53:40;;;;;;;56.95;33.40;;;6.40;99.90;;;;;;7378282;32;20170;-62
2022/11/30 16:57:42;;;;;;;50.10;31.30;;;6.40;99.90;;;;;;7380703;32;20118;-62
2022/11/30 17:01:46;;;;;;;54.50;33.53;;;6.40;99.90;;;;;;7375718;32;20111;-63
2022/11/30 17:05:48;;;;;;;54.35;33.58;;;6.40;99.90;;;;;;7371747;32;20193;-60
2022/11/30 17:09:49;;;;;;;50.38;30.70;;;6.50;99.90;;;;;;7378186;32;20488;-62
2022/11/30 17:13:51;;;;;;;52.45;29.83;;;6.50;99.90;;;;;;7381190;32;20137;-61
2022/11/30 17:17:57;;;;;;;52.88;29.50;;;6.40;99.90;;;;;;7378380;32;20131;-61
2022/11/30 17:21:58;;;;;;;51.22;29.35;;;6.40;99.90;;;;;;7371152;32;20186;-60
2022/11/30 17:26:00;;;;;;;52.45;30.42;;;6.50;99.90;;;;;;7380071;32;20137;-61
2022/11/30 17:30:02;;;;;;;55.92;31.48;;;6.40;99.90;;;;;;7374024;32;20230;-61
2022/11/30 17:34:05;;;;;;;55.42;32.65;;;6.40;99.90;;;;;;7376303;32;20133;-61
2022/11/30 17:38:07;;;;;;;55.38;31.02;;;6.40;99.90;;;;;;7379514;32;20273;-61
2022/11/30 17:42:08;;;;;;;61.28;34.30;;;6.40;99.90;;;;;;7374516;32;20112;-61
2022/11/30 17:46:16;;;;;;;73.93;41.55;;;6.40;99.90;;;;;;7370631;32;20130;-60
2022/11/30 17:50:18;;;;;;;69.70;37.45;;;6.30;99.90;;;;;;7376590;32;20183;-60
2022/11/30 17:54:20;;;;;;;67.62;36.28;;;6.30;99.90;;;;;;7377221;32;20251;-60
2022/11/30 17:58:22;;;;;;;70.72;36.42;;;6.20;99.90;;;;;;7372711;32;20774;-61
2022/11/30 18:02:24;;;;;;;66.15;36.47;;;6.20;99.90;;;;;;7370967;32;20253;-61
2022/11/30 18:06:26;;;;;;;68.50;37.50;;;6.30;99.90;;;;;;7381639;32;20310;-61
2022/11/30 18:10:27;;;;;;;63.55;36.25;;;6.30;99.90;;;;;;7385759;32;20102;-60
2022/11/30 18:14:29;;;;;;;68.15;35.88;;;6.30;99.90;;;;;;7377628;32;20130;-60
2022/11/30 18:18:31;;;;;;;63.42;35.83;;;6.30;99.90;;;;;;7376608;32;20198;-60
2022/11/30 18:22:32;;;;;;;63.33;36.58;;;6.30;99.90;;;;;;7371742;32;20153;-60
2022/11/30 18:26:34;;;;;;;66.05;36.00;;;6.30;99.90;;;;;;7373494;32;20799;-60
2022/11/30 18:30:36;;;;;;;65.32;34.65;;;6.40;99.90;;;;;;7366675;32;20115;-59
2022/11/30 18:34:39;;;;;;;53.38;29.27;;;6.30;99.90;;;;;;7367971;32;20179;-59
2022/11/30 18:38:40;;;;;;;58.22;31.10;;;6.40;99.90;;;;;;7367972;32;20676;-60
2022/11/30 18:42:42;;;;;;;62.62;30.90;;;6.30;99.90;;;;;;7369613;32;20205;-60
2022/11/30 18:46:44;;;;;;;56.42;29.77;;;6.30;99.90;;;;;;7375889;32;20133;-59
2022/11/30 18:50:46;;;;;;;63.87;36.78;;;6.30;99.90;;;;;;7367622;32;20126;-59
2022/11/30 18:54:47;;;;;;;49.33;27.37;;;6.30;99.90;;;;;;7365170;32;20222;-60
2022/11/30 18:58:55;;;;;;;54.60;30.88;;;6.20;99.90;;;;;;7366926;32;20256;-59
2022/11/30 19:02:56;;;;;;;48.30;26.27;;;6.20;99.90;;;;;;7371523;32;20561;-59
2022/11/30 19:06:58;;;;;;;44.90;26.58;;;6.20;99.90;;;;;;7377075;32;20115;-60
2022/11/30 19:11:02;;;;;;;41.85;25.65;;;6.20;99.90;;;;;;7373531;32;20129;-62
2022/11/30 19:15:06;;;;;;;42.42;23.87;;;6.30;99.90;;;;;;7375038;32;21949;-60
2022/11/30 19:19:11;;;;;;;48.35;30.25;;;6.20;99.90;;;;;;7373121;32;20463;-60
2022/11/30 19:23:13;;;;;;;45.92;26.85;;;6.30;99.90;;;;;;7368803;32;20103;-60
2022/11/30 19:27:14;;;;;;;47.00;29.42;;;6.20;99.90;;;;;;7372439;32;20467;-59
2022/11/30 19:31:18;;;;;;;37.38;23.58;;;6.20;99.90;;;;;;7366514;32;20123;-59
2022/11/30 19:35:21;;;;;;;40.88;26.10;;;6.20;99.90;;;;;;7371598;32;20643;-60
2022/11/30 19:39:23;;;;;;;37.10;21.83;;;6.20;99.90;;;;;;7374428;32;21165;-60
2022/11/30 19:43:25;;;;;;;35.95;22.13;;;6.20;99.90;;;;;;7369702;32;20110;-60
2022/11/30 19:47:26;;;;;;;29.67;19.30;;;6.20;99.90;;;;;;7373368;32;20103;-60
2022/11/30 19:51:29;;;;;;;27.60;18.75;;;6.20;99.90;;;;;;7369887;32;20709;-60
2022/11/30 19:55:32;;;;;;;25.45;16.48;;;6.10;99.90;;;;;;7375665;32;20623;-60
2022/11/30 19:59:33;;;;;;;26.50;16.65;;;6.20;99.90;;;;;;7369834;32;20107;-61
2022/11/30 20:03:35;;;;;;;25.77;16.50;;;6.20;99.90;;;;;;7371974;32;20204;-59
2022/11/30 20:07:37;;;;;;;27.30;16.48;;;6.20;99.90;;;;;;7376773;32;20201;-62
2022/11/30 20:11:39;;;;;;;22.45;15.20;;;6.10;99.90;;;;;;7376119;32;20208;-61
2022/11/30 20:15:40;;;;;;;21.90;15.65;;;6.10;99.90;;;;;;7373778;32;20130;-62
2022/11/30 20:19:42;;;;;;;23.00;15.35;;;6.10;99.90;;;;;;7373796;32;20171;-62
2022/11/30 20:23:46;;;;;;;23.70;15.20;;;6.10;99.90;;;;;;7371326;32;20114;-61
2022/11/30 20:27:48;;;;;;;25.20;15.45;;;6.00;99.90;;;;;;7369934;32;20726;-61
2022/11/30 20:31:50;;;;;;;25.45;14.32;;;6.10;99.90;;;;;;7371934;32;20125;-61
2022/11/30 20:35:52;;;;;;;24.90;14.68;;;6.00;99.90;;;;;;7368223;32;20145;-61
2022/11/30 20:39:53;;;;;;;25.15;15.32;;;6.00;99.90;;;;;;7368781;32;21108;-61
2022/11/30 20:43:55;;;;;;;21.95;14.65;;;6.00;99.90;;;;;;7372177;32;20154;-60
2022/11/30 20:47:56;;;;;;;23.50;14.27;;;6.00;99.90;;;;;;7374175;32;20145;-61
2022/11/30 20:51:58;;;;;;;22.15;14.48;;;5.90;99.90;;;;;;7371343;32;20191;-60
2022/11/30 20:56:00;;;;;;;25.30;16.05;;;5.90;99.90;;;;;;7375069;32;20560;-61
2022/11/30 21:00:03;;;;;;;23.23;15.25;;;5.90;99.90;;;;;;7372670;32;20129;-61
2022/11/30 21:04:12;;;;;;;25.48;15.23;;;6.00;99.90;;;;;;7369674;32;20284;-61
2022/11/30 21:08:14;;;;;;;25.67;14.87;;;5.90;99.90;;;;;;7372321;32;20095;-61